Time;durP1;ratioP1;P1;durP2;ratioP2;P2;SDS_P1;SDS_P2;PMS_P1;PMS_P2;Temp;Humidity;BMP_temperature;BMP_pressure;BME280_temperature;BME280_humidity;BME280_pressure;Samples;Min_cycle;Max_cycle;Signal;HPM_P1;HPM_P2
2022/01/09 00:00:04;;;;;;;22.77;11.13;;;0.00;99.90;;;;;;2113141;28;20071;-72
2022/01/09 00:01:12;;;;;;;18.95;10.60;;;0.00;99.90;;;;;;2113952;28;20758;-72
2022/01/09 00:02:13;;;;;;;19.40;10.57;;;0.00;99.90;;;;;;2112895;28;20116;-72
2022/01/09 00:03:13;;;;;;;21.10;10.43;;;0.00;99.90;;;;;;2113129;28;20101;-72
2022/01/09 00:04:14;;;;;;;17.20;10.13;;;0.00;99.90;;;;;;2113157;28;20043;-72
2022/01/09 00:05:16;;;;;;;18.92;10.38;;;0.00;99.90;;;;;;2113640;28;20036;-71
2022/01/09 00:06:17;;;;;;;19.13;10.23;;;0.00;99.90;;;;;;2113506;28;20102;-72
2022/01/09 00:07:17;;;;;;;16.77;10.57;;;0.00;99.90;;;;;;2113489;28;20406;-72
2022/01/09 00:08:18;;;;;;;16.67;10.43;;;0.00;99.90;;;;;;2113752;28;20129;-72
2022/01/09 00:09:19;;;;;;;15.68;9.98;;;0.00;99.90;;;;;;2112881;28;20106;-71
2022/01/09 00:10:20;;;;;;;18.42;10.25;;;0.00;99.90;;;;;;2113322;28;20078;-73
2022/01/09 00:11:26;;;;;;;17.38;10.35;;;0.00;99.90;;;;;;2113370;28;20028;-72
2022/01/09 00:12:26;;;;;;;19.17;10.80;;;0.00;99.90;;;;;;2113487;28;20051;-71
2022/01/09 00:13:27;;;;;;;18.58;10.38;;;0.00;99.90;;;;;;2113437;28;20437;-71
2022/01/09 00:14:28;;;;;;;18.75;9.75;;;0.10;99.90;;;;;;2113991;28;20036;-73
2022/01/09 00:15:28;;;;;;;18.50;9.85;;;0.00;99.90;;;;;;2113370;28;20027;-72
2022/01/09 00:16:29;;;;;;;16.38;9.73;;;0.00;99.90;;;;;;2113172;28;20073;-72
2022/01/09 00:17:30;;;;;;;18.90;10.48;;;0.00;99.90;;;;;;2113769;28;20031;-70
2022/01/09 00:18:31;;;;;;;15.68;9.30;;;0.00;99.90;;;;;;2113288;28;20107;-70
2022/01/09 00:19:31;;;;;;;17.38;10.00;;;0.00;99.90;;;;;;2111638;28;20051;-72
2022/01/09 00:20:32;;;;;;;16.20;9.73;;;0.00;99.90;;;;;;2103443;28;20043;-71
2022/01/09 00:21:33;;;;;;;17.38;10.07;;;0.00;99.90;;;;;;2093753;28;20032;-72
2022/01/09 00:22:40;;;;;;;17.05;10.13;;;0.00;99.90;;;;;;2087681;28;20021;-72
2022/01/09 00:23:42;;;;;;;18.33;10.18;;;0.00;99.90;;;;;;2098113;28;20056;-72
2022/01/09 00:24:42;;;;;;;17.40;9.93;;;0.00;99.90;;;;;;2107130;27;20530;-72
2022/01/09 00:25:43;;;;;;;18.70;10.00;;;0.00;99.90;;;;;;2105135;28;20032;-72
2022/01/09 00:26:43;;;;;;;18.13;9.70;;;0.00;99.90;;;;;;2112084;28;20103;-72
2022/01/09 00:27:45;;;;;;;17.48;9.50;;;0.00;99.90;;;;;;2108905;28;20024;-73
2022/01/09 00:28:45;;;;;;;17.02;9.32;;;0.00;99.90;;;;;;2111626;28;20488;-73
2022/01/09 00:29:46;;;;;;;15.95;8.95;;;0.00;99.90;;;;;;2108539;28;20024;-74
2022/01/09 00:30:47;;;;;;;15.02;8.98;;;0.00;99.90;;;;;;2113306;28;20375;-73
2022/01/09 00:31:47;;;;;;;15.07;8.93;;;0.00;99.90;;;;;;2108133;28;20110;-74
2022/01/09 00:32:49;;;;;;;13.93;8.73;;;0.00;99.90;;;;;;2112785;28;20027;-72
2022/01/09 00:33:50;;;;;;;16.17;8.90;;;0.00;99.90;;;;;;2116087;27;20077;-73
2022/01/09 00:34:50;;;;;;;15.13;9.00;;;0.00;99.90;;;;;;2113741;28;20488;-71
2022/01/09 00:35:52;;;;;;;16.63;9.05;;;0.00;99.90;;;;;;2108583;28;20088;-72
2022/01/09 00:36:53;;;;;;;14.88;8.60;;;0.00;99.90;;;;;;2113409;28;20124;-72
2022/01/09 00:37:53;;;;;;;15.02;8.20;;;0.00;99.90;;;;;;2107436;28;20036;-71
2022/01/09 00:38:54;;;;;;;16.27;8.50;;;0.00;99.90;;;;;;2113889;28;20055;-73
2022/01/09 00:39:55;;;;;;;16.15;8.65;;;0.00;99.90;;;;;;2108147;28;20079;-73
2022/01/09 00:40:55;;;;;;;18.40;8.93;;;0.00;99.90;;;;;;2122127;27;20085;-73
2022/01/09 00:41:56;;;;;;;14.73;8.02;;;0.10;99.90;;;;;;2115247;27;20038;-74
2022/01/09 00:42:59;;;;;;;15.80;8.23;;;0.10;99.90;;;;;;2114810;28;20474;-72
2022/01/09 00:43:59;;;;;;;15.98;8.68;;;0.10;99.90;;;;;;2115257;28;20024;-71
2022/01/09 00:45:00;;;;;;;13.27;7.85;;;0.10;99.90;;;;;;2114845;28;20056;-73
2022/01/09 00:46:01;;;;;;;11.80;7.68;;;0.10;99.90;;;;;;2106601;28;20102;-72
2022/01/09 00:47:02;;;;;;;13.13;7.72;;;0.10;99.90;;;;;;2114690;28;20023;-73
2022/01/09 00:48:03;;;;;;;14.15;7.97;;;0.10;99.90;;;;;;2106502;28;20028;-70
2022/01/09 00:49:04;;;;;;;15.60;8.15;;;0.10;99.90;;;;;;2105606;28;20424;-73
2022/01/09 00:50:06;;;;;;;14.85;8.10;;;0.10;99.90;;;;;;2097850;28;20027;-71
2022/01/09 00:51:06;;;;;;;14.98;7.90;;;0.10;99.90;;;;;;2098127;28;20033;-70
2022/01/09 00:52:07;;;;;;;15.25;8.30;;;0.10;99.90;;;;;;2114120;28;20031;-73
2022/01/09 00:53:08;;;;;;;13.98;7.93;;;0.10;99.90;;;;;;2114188;28;20437;-72
2022/01/09 00:54:08;;;;;;;13.27;7.88;;;0.10;99.90;;;;;;2107424;28;20016;-71
2022/01/09 00:55:10;;;;;;;13.18;8.10;;;0.10;99.90;;;;;;2114131;28;20069;-72
2022/01/09 00:56:11;;;;;;;14.40;8.50;;;0.10;99.90;;;;;;2106935;28;20027;-72
2022/01/09 00:57:11;;;;;;;14.00;8.40;;;0.10;99.90;;;;;;2112964;28;20028;-71
2022/01/09 00:58:12;;;;;;;15.90;8.48;;;0.10;99.90;;;;;;2107941;28;20028;-71
2022/01/09 00:59:13;;;;;;;17.65;9.27;;;0.10;99.90;;;;;;2112963;28;20407;-71
2022/01/09 01:00:14;;;;;;;15.75;8.80;;;0.10;99.90;;;;;;2108042;28;20083;-72
2022/01/09 01:01:15;;;;;;;16.45;9.32;;;0.00;99.90;;;;;;2113200;28;20511;-70
2022/01/09 01:02:16;;;;;;;18.10;9.00;;;0.10;99.90;;;;;;2107812;28;20052;-70
2022/01/09 01:03:16;;;;;;;17.63;9.73;;;0.00;99.90;;;;;;2112140;28;20036;-71
2022/01/09 01:04:17;;;;;;;16.23;9.65;;;0.00;99.90;;;;;;2107721;28;20071;-70
2022/01/09 01:05:18;;;;;;;18.05;10.00;;;0.00;99.90;;;;;;2111886;28;20031;-71
2022/01/09 01:06:19;;;;;;;15.57;9.75;;;0.00;99.90;;;;;;2108289;28;20032;-71
2022/01/09 01:07:20;;;;;;;19.10;10.20;;;0.00;99.90;;;;;;2120342;27;20114;-71
2022/01/09 01:08:21;;;;;;;17.73;10.40;;;0.00;99.90;;;;;;2109138;28;20028;-71
2022/01/09 01:09:23;;;;;;;18.63;9.95;;;0.00;99.90;;;;;;2111553;28;20044;-71
2022/01/09 01:10:24;;;;;;;16.75;9.93;;;0.00;99.90;;;;;;2117078;27;20077;-72
2022/01/09 01:11:24;;;;;;;20.23;10.45;;;0.00;99.90;;;;;;2119619;27;20111;-74
2022/01/09 01:12:27;;;;;;;17.33;9.70;;;0.10;99.90;;;;;;2109825;28;20223;-71
2022/01/09 01:13:28;;;;;;;15.80;9.90;;;0.00;99.90;;;;;;2114534;28;20444;-72
2022/01/09 01:14:31;;;;;;;16.27;10.27;;;0.10;99.90;;;;;;2114698;28;20047;-71
2022/01/09 01:15:31;;;;;;;15.93;10.38;;;0.10;99.90;;;;;;2115454;28;20047;-72
2022/01/09 01:16:32;;;;;;;16.58;10.10;;;0.10;99.90;;;;;;2115308;28;20028;-71
2022/01/09 01:17:33;;;;;;;19.80;10.30;;;0.10;99.90;;;;;;2115183;28;20023;-73
2022/01/09 01:18:34;;;;;;;18.00;10.93;;;0.10;99.90;;;;;;2114763;28;20291;-74
2022/01/09 01:19:35;;;;;;;18.50;10.93;;;0.10;99.90;;;;;;2114439;28;20427;-73
2022/01/09 01:20:36;;;;;;;18.02;10.30;;;0.10;99.90;;;;;;2106032;28;20031;-73
2022/01/09 01:21:37;;;;;;;19.35;9.73;;;0.00;99.90;;;;;;2105349;28;20064;-72
2022/01/09 01:22:39;;;;;;;21.20;11.18;;;0.00;99.90;;;;;;2114126;28;20023;-73
2022/01/09 01:23:40;;;;;;;22.65;11.60;;;0.00;99.90;;;;;;2109478;27;20012;-72
2022/01/09 01:24:41;;;;;;;19.27;10.82;;;0.00;99.90;;;;;;2111656;28;20027;-72
2022/01/09 01:25:44;;;;;;;18.67;10.60;;;0.00;99.90;;;;;;2108739;28;20135;-71
2022/01/09 01:26:45;;;;;;;18.80;10.75;;;0.00;99.90;;;;;;2096005;28;20021;-71
2022/01/09 01:27:46;;;;;;;17.05;10.65;;;0.00;99.90;;;;;;2100947;28;20021;-72
2022/01/09 01:28:47;;;;;;;18.88;10.40;;;0.00;99.90;;;;;;2113270;28;20030;-72
2022/01/09 01:29:48;;;;;;;20.70;11.15;;;0.00;99.90;;;;;;2109756;28;20385;-71
2022/01/09 01:30:48;;;;;;;18.48;10.90;;;0.00;99.90;;;;;;2113827;28;20027;-72
2022/01/09 01:31:49;;;;;;;19.10;10.82;;;0.00;99.90;;;;;;2114772;28;20023;-73
2022/01/09 01:32:49;;;;;;;17.88;10.98;;;0.00;99.90;;;;;;2114632;28;20432;-72
2022/01/09 01:33:50;;;;;;;18.65;10.88;;;0.00;99.90;;;;;;2099551;28;20428;-72
2022/01/09 01:34:52;;;;;;;20.63;10.70;;;0.00;99.90;;;;;;2113398;28;20099;-71
2022/01/09 01:35:52;;;;;;;17.35;10.30;;;0.00;99.90;;;;;;2107990;28;20016;-72
2022/01/09 01:36:53;;;;;;;19.08;10.73;;;0.00;99.90;;;;;;2105057;28;20467;-71
2022/01/09 01:37:53;;;;;;;17.98;10.35;;;0.00;99.90;;;;;;2106496;28;20032;-72
2022/01/09 01:38:54;;;;;;;17.35;10.32;;;0.00;99.90;;;;;;2113124;28;20027;-72
2022/01/09 01:39:55;;;;;;;16.58;10.30;;;-0.10;99.90;;;;;;2107419;28;20127;-70
2022/01/09 01:40:58;;;;;;;21.02;11.20;;;-0.10;99.90;;;;;;2114099;28;20396;-72
2022/01/09 01:41:58;;;;;;;15.70;10.13;;;-0.10;99.90;;;;;;2106764;28;20168;-72
2022/01/09 01:42:59;;;;;;;17.33;10.35;;;-0.10;99.90;;;;;;2114052;28;20031;-71
2022/01/09 01:44:00;;;;;;;19.45;10.77;;;-0.10;99.90;;;;;;2106570;28;20043;-73
2022/01/09 01:45:01;;;;;;;17.17;10.43;;;-0.10;99.90;;;;;;2114620;28;20028;-72
2022/01/09 01:46:02;;;;;;;19.95;10.35;;;-0.10;99.90;;;;;;2105811;28;20016;-70
2022/01/09 01:47:03;;;;;;;16.98;9.77;;;-0.10;99.90;;;;;;2097384;28;20098;-71
2022/01/09 01:48:07;;;;;;;17.30;9.95;;;-0.10;99.90;;;;;;2106159;28;20032;-75
2022/01/09 01:49:11;;;;;;;17.63;10.20;;;-0.10;99.90;;;;;;2112649;28;20493;-72
2022/01/09 01:50:13;;;;;;;17.42;9.73;;;-0.10;99.90;;;;;;2106878;28;20442;-71
2022/01/09 01:51:14;;;;;;;17.02;10.10;;;-0.10;99.90;;;;;;2112489;28;20783;-71
2022/01/09 01:52:18;;;;;;;17.13;10.30;;;0.00;99.90;;;;;;2098672;28;20041;-72
2022/01/09 01:53:20;;;;;;;18.23;10.07;;;0.00;99.90;;;;;;2111695;28;20028;-72
2022/01/09 01:54:22;;;;;;;15.65;9.80;;;0.00;99.90;;;;;;2108714;28;20036;-71
2022/01/09 01:55:22;;;;;;;16.63;9.32;;;0.00;99.90;;;;;;2111947;28;20031;-72
2022/01/09 01:56:23;;;;;;;17.80;10.10;;;-0.10;99.90;;;;;;2100017;28;20030;-72
2022/01/09 01:57:24;;;;;;;14.85;9.40;;;-0.10;99.90;;;;;;2102637;28;20542;-72
2022/01/09 01:58:26;;;;;;;15.20;9.32;;;0.00;99.90;;;;;;2109217;28;20023;-74
2022/01/09 01:59:26;;;;;;;16.50;9.50;;;-0.10;99.90;;;;;;2109928;28;20028;-72
2022/01/09 02:00:27;;;;;;;16.92;9.00;;;-0.10;99.90;;;;;;2108955;28;20493;-71
2022/01/09 02:01:27;;;;;;;15.43;9.02;;;-0.10;99.90;;;;;;2110653;28;20031;-71
2022/01/09 02:02:28;;;;;;;17.85;9.38;;;0.00;99.90;;;;;;2109692;28;20100;-71
2022/01/09 02:03:29;;;;;;;15.43;9.30;;;-0.10;99.90;;;;;;2110772;28;20553;-70
2022/01/09 02:04:29;;;;;;;14.30;8.65;;;0.00;99.90;;;;;;2109688;28;20059;-69
2022/01/09 02:05:30;;;;;;;14.85;8.40;;;0.00;99.90;;;;;;2109840;28;20030;-72
2022/01/09 02:06:32;;;;;;;15.32;8.80;;;0.00;99.90;;;;;;2109480;28;20028;-69
2022/01/09 02:07:33;;;;;;;16.80;9.00;;;0.00;99.90;;;;;;2110336;28;20135;-71
2022/01/09 02:08:34;;;;;;;15.65;8.90;;;0.00;99.90;;;;;;2109174;28;20035;-71
2022/01/09 02:09:35;;;;;;;15.55;8.55;;;0.00;99.90;;;;;;2109269;28;20110;-70
2022/01/09 02:10:40;;;;;;;15.52;8.65;;;0.10;99.90;;;;;;2119212;27;20019;-69
2022/01/09 02:11:40;;;;;;;14.98;8.40;;;0.10;99.90;;;;;;2108234;28;20047;-70
2022/01/09 02:12:41;;;;;;;14.43;8.15;;;0.10;99.90;;;;;;2105387;28;20671;-71
2022/01/09 02:13:45;;;;;;;14.02;8.43;;;0.10;99.90;;;;;;2096843;28;20064;-71
2022/01/09 02:14:47;;;;;;;12.73;8.07;;;0.10;99.90;;;;;;2100928;28;20028;-71
2022/01/09 02:15:48;;;;;;;13.63;7.95;;;0.10;99.90;;;;;;2114950;28;20027;-72
2022/01/09 02:16:50;;;;;;;14.25;8.10;;;0.10;99.90;;;;;;2120334;28;20027;-74
2022/01/09 02:17:51;;;;;;;13.82;7.95;;;0.10;99.90;;;;;;2110250;28;20032;-70
2022/01/09 02:18:51;;;;;;;14.98;7.57;;;0.10;99.90;;;;;;2104034;28;20684;-73
2022/01/09 02:19:56;;;;;;;16.55;8.48;;;0.10;99.90;;;;;;2106803;28;20020;-72
2022/01/09 02:20:57;;;;;;;14.10;7.82;;;0.20;99.90;;;;;;2113107;28;20062;-71
2022/01/09 02:21:59;;;;;;;13.90;7.80;;;0.20;99.90;;;;;;2105590;28;20028;-71
2022/01/09 02:23:00;;;;;;;12.07;7.50;;;0.20;99.90;;;;;;2113258;28;20371;-70
2022/01/09 02:24:01;;;;;;;15.50;7.75;;;0.20;99.90;;;;;;2106251;28;20108;-70
2022/01/09 02:25:02;;;;;;;13.88;7.88;;;0.30;99.90;;;;;;2114102;28;20026;-70
2022/01/09 02:26:02;;;;;;;11.13;7.40;;;0.30;99.90;;;;;;2105636;28;20055;-73
2022/01/09 02:27:05;;;;;;;11.05;7.28;;;0.30;99.90;;;;;;2114365;28;20050;-72
2022/01/09 02:28:07;;;;;;;14.55;7.72;;;0.40;99.90;;;;;;2106256;28;20032;-71
2022/01/09 02:29:07;;;;;;;13.68;7.63;;;0.40;99.90;;;;;;2112828;28;20066;-74
2022/01/09 02:30:09;;;;;;;13.45;7.68;;;0.40;99.90;;;;;;2106623;28;20392;-74
2022/01/09 02:31:10;;;;;;;13.27;7.45;;;0.40;99.90;;;;;;2121021;27;20506;-72
2022/01/09 02:32:10;;;;;;;13.18;7.93;;;0.40;99.90;;;;;;2113401;28;20055;-74
2022/01/09 02:33:15;;;;;;;12.82;7.32;;;0.40;99.90;;;;;;2105954;28;20391;-73
2022/01/09 02:34:16;;;;;;;12.60;7.28;;;0.40;99.90;;;;;;2107322;28;20048;-72
2022/01/09 02:35:16;;;;;;;11.57;7.45;;;0.40;99.90;;;;;;2112167;28;20451;-72
2022/01/09 02:36:17;;;;;;;12.02;7.65;;;0.40;99.90;;;;;;2107855;28;20027;-72
2022/01/09 02:37:18;;;;;;;14.00;7.47;;;0.50;99.90;;;;;;2112062;28;20471;-72
2022/01/09 02:38:20;;;;;;;14.68;7.63;;;0.40;99.90;;;;;;2107450;28;20062;-72
2022/01/09 02:39:20;;;;;;;11.02;7.25;;;0.50;99.90;;;;;;2110571;28;20051;-73
2022/01/09 02:40:22;;;;;;;11.55;7.25;;;0.50;99.90;;;;;;2108513;28;20457;-72
2022/01/09 02:41:23;;;;;;;12.45;7.28;;;0.50;99.90;;;;;;2111144;28;20034;-73
2022/01/09 02:42:28;;;;;;;13.05;7.40;;;0.40;99.90;;;;;;2116296;27;20026;-72
2022/01/09 02:43:29;;;;;;;13.27;7.75;;;0.40;99.90;;;;;;2109831;28;20058;-72
2022/01/09 02:44:29;;;;;;;14.32;7.95;;;0.40;99.90;;;;;;2109315;28;20024;-72
2022/01/09 02:45:30;;;;;;;11.02;7.60;;;0.40;99.90;;;;;;2114920;28;20020;-71
2022/01/09 02:47:33;;;;;;;11.70;7.55;;;0.40;99.90;;;;;;2114004;28;20444;-74
2022/01/09 02:48:37;;;;;;;11.77;7.95;;;0.40;99.90;;;;;;2113902;28;20040;-71
2022/01/09 02:49:38;;;;;;;13.30;7.70;;;0.30;99.90;;;;;;2114988;28;20395;-70
2022/01/09 02:50:44;;;;;;;11.48;7.20;;;0.40;99.90;;;;;;2115156;28;20040;-72
2022/01/09 02:51:46;;;;;;;13.25;7.90;;;0.40;99.90;;;;;;2114968;28;20019;-72
2022/01/09 02:52:53;;;;;;;12.50;7.63;;;0.30;99.90;;;;;;2114508;28;20019;-73
2022/01/09 02:54:07;;;;;;;13.70;7.78;;;0.30;99.90;;;;;;2114480;28;20028;-73
2022/01/09 02:55:12;;;;;;;11.40;7.30;;;0.30;99.90;;;;;;2114351;28;20019;-72
2022/01/09 02:56:12;;;;;;;13.27;7.70;;;0.30;99.90;;;;;;2106009;28;20035;-72
2022/01/09 02:57:13;;;;;;;13.55;7.72;;;0.40;99.90;;;;;;2097564;28;20025;-74
2022/01/09 02:58:14;;;;;;;14.07;7.80;;;0.30;99.90;;;;;;2105912;28;20032;-73
2022/01/09 02:59:15;;;;;;;13.27;7.65;;;0.30;99.90;;;;;;2109155;27;20130;-71
2022/01/09 03:00:24;;;;;;;12.88;7.85;;;0.30;99.90;;;;;;2122702;27;20554;-73
2022/01/09 03:01:25;;;;;;;14.55;7.68;;;0.30;99.90;;;;;;2119771;27;20032;-73
2022/01/09 03:02:25;;;;;;;11.20;7.43;;;0.30;99.90;;;;;;2105721;28;20380;-72
2022/01/09 03:03:26;;;;;;;11.95;7.75;;;0.30;99.90;;;;;;2102926;28;20521;-72
2022/01/09 03:04:26;;;;;;;13.50;8.38;;;0.30;99.90;;;;;;2109923;28;20035;-72
2022/01/09 03:05:28;;;;;;;12.15;7.70;;;0.30;99.90;;;;;;2111494;28;20112;-71
2022/01/09 03:06:29;;;;;;;14.63;8.30;;;0.30;99.90;;;;;;2114079;28;20031;-72
2022/01/09 03:07:30;;;;;;;12.93;7.63;;;0.30;99.90;;;;;;2117916;27;20494;-72
2022/01/09 03:08:31;;;;;;;11.18;7.57;;;0.30;99.90;;;;;;2114914;28;20028;-72
2022/01/09 03:09:32;;;;;;;12.80;8.07;;;0.30;99.90;;;;;;2105524;28;20532;-72
2022/01/09 03:10:33;;;;;;;14.50;8.27;;;0.40;99.90;;;;;;2105436;28;20539;-72
2022/01/09 03:11:36;;;;;;;12.82;7.75;;;0.40;99.90;;;;;;2105649;28;20031;-71
2022/01/09 03:12:37;;;;;;;14.77;7.72;;;0.40;99.90;;;;;;2106457;28;20020;-72
2022/01/09 03:13:38;;;;;;;12.13;7.60;;;0.40;99.90;;;;;;2111118;28;20417;-72
2022/01/09 03:14:38;;;;;;;12.02;7.75;;;0.40;99.90;;;;;;2114696;28;20027;-71
2022/01/09 03:15:40;;;;;;;13.57;8.00;;;0.40;99.90;;;;;;2109036;28;20028;-71
2022/01/09 03:16:41;;;;;;;12.15;7.93;;;0.40;99.90;;;;;;2097476;28;20413;-71
2022/01/09 03:17:43;;;;;;;13.10;7.97;;;0.50;99.90;;;;;;2108000;28;20036;-72
2022/01/09 03:18:43;;;;;;;13.90;8.23;;;0.50;99.90;;;;;;2122561;27;20094;-72
2022/01/09 03:19:44;;;;;;;12.85;7.53;;;0.50;99.90;;;;;;2117254;27;20418;-72
2022/01/09 03:20:44;;;;;;;14.18;8.18;;;0.50;99.90;;;;;;2114617;28;20371;-72
2022/01/09 03:21:45;;;;;;;13.55;8.38;;;0.50;99.90;;;;;;2114264;28;20020;-71
2022/01/09 03:22:47;;;;;;;13.57;8.15;;;0.60;99.90;;;;;;2113766;28;20015;-71
2022/01/09 03:23:47;;;;;;;13.55;7.72;;;0.60;99.90;;;;;;2113735;28;20024;-71
2022/01/09 03:24:49;;;;;;;14.02;8.35;;;0.60;99.90;;;;;;2113692;28;20107;-71
2022/01/09 03:25:49;;;;;;;14.00;7.85;;;0.60;99.90;;;;;;2114179;28;20015;-71
2022/01/09 03:26:50;;;;;;;13.05;8.30;;;0.60;99.90;;;;;;2105256;28;20111;-71
2022/01/09 03:27:51;;;;;;;14.30;7.55;;;0.60;99.90;;;;;;2105101;28;20024;-71
2022/01/09 03:28:52;;;;;;;12.85;7.80;;;0.60;99.90;;;;;;2114275;28;20019;-71
2022/01/09 03:29:53;;;;;;;14.65;8.48;;;0.60;99.90;;;;;;2113554;28;20538;-71
2022/01/09 03:30:53;;;;;;;14.95;7.93;;;0.60;99.90;;;;;;2113661;28;20024;-71
2022/01/09 03:31:54;;;;;;;13.52;8.05;;;0.60;99.90;;;;;;2129158;27;20087;-72
2022/01/09 03:32:55;;;;;;;12.13;8.30;;;0.60;99.90;;;;;;2115280;27;20051;-72
2022/01/09 03:33:56;;;;;;;12.60;7.25;;;0.60;99.90;;;;;;2114322;28;20351;-71
2022/01/09 03:34:56;;;;;;;11.27;7.40;;;0.60;99.90;;;;;;2113671;28;20133;-71
2022/01/09 03:35:57;;;;;;;12.18;7.53;;;0.50;99.90;;;;;;2105199;28;20034;-72
2022/01/09 03:36:57;;;;;;;14.07;7.55;;;0.60;99.90;;;;;;2113848;28;20039;-72
2022/01/09 03:37:58;;;;;;;13.98;7.80;;;0.60;99.90;;;;;;2106454;28;20488;-71
2022/01/09 03:38:59;;;;;;;11.25;7.32;;;0.50;99.90;;;;;;2105531;28;20051;-73
2022/01/09 03:39:59;;;;;;;12.27;8.02;;;0.60;99.90;;;;;;2112770;28;20035;-72
2022/01/09 03:41:00;;;;;;;11.68;7.70;;;0.60;99.90;;;;;;2113364;28;20016;-72
2022/01/09 03:42:00;;;;;;;12.32;7.80;;;0.60;99.90;;;;;;2113655;28;20039;-72
2022/01/09 03:43:01;;;;;;;14.02;7.80;;;0.60;99.90;;;;;;2105081;28;20024;-71
2022/01/09 03:44:02;;;;;;;12.75;7.25;;;0.70;99.90;;;;;;2113756;28;20364;-71
2022/01/09 03:45:04;;;;;;;13.30;7.43;;;0.70;99.90;;;;;;2105987;28;20008;-70
2022/01/09 03:46:04;;;;;;;11.07;7.38;;;0.70;99.90;;;;;;2096721;28;20027;-70
2022/01/09 03:47:05;;;;;;;12.68;7.75;;;0.70;99.90;;;;;;2105252;28;20038;-70
2022/01/09 03:48:06;;;;;;;11.07;7.53;;;0.70;99.90;;;;;;2114256;28;20024;-71
2022/01/09 03:49:06;;;;;;;11.98;7.07;;;0.70;99.90;;;;;;2113594;28;20031;-73
2022/01/09 03:50:10;;;;;;;10.85;7.13;;;0.70;99.90;;;;;;2114355;28;20114;-73
2022/01/09 03:51:11;;;;;;;11.05;7.22;;;0.70;99.90;;;;;;2115669;27;20103;-73
2022/01/09 03:52:13;;;;;;;12.52;7.88;;;0.70;99.90;;;;;;2120416;27;20118;-72
2022/01/09 03:53:14;;;;;;;13.05;7.50;;;0.70;99.90;;;;;;2112321;28;20106;-71
2022/01/09 03:54:14;;;;;;;12.57;7.38;;;0.70;99.90;;;;;;2106125;28;20146;-72
2022/01/09 03:55:17;;;;;;;13.10;7.43;;;0.70;99.90;;;;;;2109472;28;20056;-72
2022/01/09 03:56:18;;;;;;;10.15;6.97;;;0.70;99.90;;;;;;2120699;27;20070;-72
2022/01/09 03:57:18;;;;;;;14.73;7.75;;;0.70;99.90;;;;;;2113604;28;20039;-70
2022/01/09 03:58:19;;;;;;;11.63;7.68;;;0.70;99.90;;;;;;2113720;28;20028;-71
2022/01/09 03:59:19;;;;;;;12.45;7.57;;;0.70;99.90;;;;;;2113183;28;20028;-70
2022/01/09 04:00:23;;;;;;;12.60;7.50;;;0.70;99.90;;;;;;2114182;28;20043;-71
2022/01/09 04:01:23;;;;;;;11.20;7.43;;;0.70;99.90;;;;;;2114786;28;20414;-72
2022/01/09 04:02:24;;;;;;;12.63;7.63;;;0.80;99.90;;;;;;2114767;28;20066;-72
2022/01/09 04:03:24;;;;;;;12.20;7.20;;;0.80;99.90;;;;;;2115047;28;20118;-72
2022/01/09 04:04:25;;;;;;;15.02;7.43;;;0.70;99.90;;;;;;2106185;28;20032;-72
2022/01/09 04:05:25;;;;;;;10.68;7.28;;;0.70;99.90;;;;;;2106676;28;20036;-72
2022/01/09 04:06:26;;;;;;;10.82;7.07;;;0.70;99.90;;;;;;2115445;28;20031;-72
2022/01/09 04:07:27;;;;;;;12.35;6.95;;;0.70;99.90;;;;;;2123924;27;20083;-72
2022/01/09 04:08:28;;;;;;;11.85;7.30;;;0.70;99.90;;;;;;2124099;27;20031;-72
2022/01/09 04:09:39;;;;;;;11.82;7.15;;;0.70;99.90;;;;;;2114306;28;20028;-72
2022/01/09 04:10:42;;;;;;;15.38;7.50;;;0.70;99.90;;;;;;2114928;28;20114;-73
2022/01/09 04:11:43;;;;;;;12.32;7.78;;;0.70;99.90;;;;;;2114728;28;20069;-72
2022/01/09 04:12:49;;;;;;;11.73;7.03;;;0.60;99.90;;;;;;2115655;28;20051;-72
2022/01/09 04:13:50;;;;;;;11.27;7.28;;;0.70;99.90;;;;;;2115608;28;20024;-73
2022/01/09 04:14:50;;;;;;;10.75;7.07;;;0.70;99.90;;;;;;2115014;28;20023;-72
2022/01/09 04:15:51;;;;;;;12.70;7.45;;;0.60;99.90;;;;;;2115207;28;20016;-72
2022/01/09 04:16:52;;;;;;;10.95;7.05;;;0.60;99.90;;;;;;2115462;28;20019;-73
2022/01/09 04:17:54;;;;;;;10.73;6.65;;;0.60;99.90;;;;;;2114931;28;20470;-72
2022/01/09 04:18:55;;;;;;;11.02;6.95;;;0.60;99.90;;;;;;2114388;28;20039;-72
2022/01/09 04:19:55;;;;;;;11.18;6.68;;;0.60;99.90;;;;;;2115506;28;20019;-72
2022/01/09 04:20:56;;;;;;;10.77;6.82;;;0.60;99.90;;;;;;2115695;28;20053;-71
2022/01/09 04:21:57;;;;;;;10.77;6.97;;;0.60;99.90;;;;;;2114555;28;20039;-72
2022/01/09 04:22:59;;;;;;;13.95;7.20;;;0.60;99.90;;;;;;2114838;28;20028;-72
2022/01/09 04:23:59;;;;;;;10.63;7.13;;;0.60;99.90;;;;;;2114763;28;20024;-72
2022/01/09 04:25:00;;;;;;;12.88;7.22;;;0.60;99.90;;;;;;2115125;28;20573;-72
2022/01/09 04:26:00;;;;;;;10.23;6.70;;;0.60;99.90;;;;;;2114945;28;20517;-72
2022/01/09 04:27:02;;;;;;;11.65;7.00;;;0.60;99.90;;;;;;2115076;28;20077;-71
2022/01/09 04:28:03;;;;;;;10.35;6.65;;;0.60;99.90;;;;;;2115587;28;20420;-72
2022/01/09 04:29:04;;;;;;;11.35;6.63;;;0.50;99.90;;;;;;2114431;28;20067;-71
2022/01/09 04:30:06;;;;;;;11.55;7.40;;;0.60;99.90;;;;;;2114826;28;20016;-71
2022/01/09 04:31:06;;;;;;;14.75;6.95;;;0.50;99.90;;;;;;2115567;28;20028;-72
2022/01/09 04:32:07;;;;;;;13.25;7.15;;;0.60;99.90;;;;;;2115140;28;20027;-71
2022/01/09 04:33:11;;;;;;;13.55;7.53;;;0.50;99.90;;;;;;2114919;28;20028;-72
2022/01/09 04:34:12;;;;;;;11.13;6.68;;;0.50;99.90;;;;;;2114940;28;20028;-72
2022/01/09 04:35:13;;;;;;;10.35;7.15;;;0.60;99.90;;;;;;2115305;28;20103;-71
2022/01/09 04:36:14;;;;;;;10.93;7.15;;;0.50;99.90;;;;;;2115249;28;20031;-70
2022/01/09 04:37:14;;;;;;;12.10;7.03;;;0.50;99.90;;;;;;2114728;28;20031;-72
2022/01/09 04:38:15;;;;;;;10.18;6.60;;;0.50;99.90;;;;;;2114853;28;20035;-71
2022/01/09 04:39:16;;;;;;;13.25;7.20;;;0.50;99.90;;;;;;2114886;28;20138;-71
2022/01/09 04:40:19;;;;;;;9.95;6.95;;;0.60;99.90;;;;;;2114608;28;20032;-71
2022/01/09 04:41:19;;;;;;;11.90;7.28;;;0.60;99.90;;;;;;2114850;28;20529;-71
2022/01/09 04:42:26;;;;;;;12.50;7.28;;;0.60;99.90;;;;;;2114505;28;20054;-70
2022/01/09 04:43:28;;;;;;;11.45;6.90;;;0.50;99.90;;;;;;2115102;28;20802;-70
2022/01/09 04:44:28;;;;;;;11.35;7.13;;;0.50;99.90;;;;;;2114814;28;20024;-71
2022/01/09 04:45:29;;;;;;;11.15;7.07;;;0.50;99.90;;;;;;2114802;28;20111;-72
2022/01/09 04:46:41;;;;;;;12.63;7.53;;;0.50;99.90;;;;;;2123158;27;20076;-71
2022/01/09 04:47:45;;;;;;;11.02;6.90;;;0.60;99.90;;;;;;2121956;27;20035;-72
2022/01/09 04:48:46;;;;;;;11.95;6.90;;;0.60;99.90;;;;;;2122555;27;20027;-71
2022/01/09 04:49:49;;;;;;;11.50;6.75;;;0.60;99.90;;;;;;2114771;28;20020;-72
2022/01/09 04:50:52;;;;;;;11.30;6.93;;;0.60;99.90;;;;;;2114716;28;20034;-71
2022/01/09 04:51:53;;;;;;;12.48;7.32;;;0.60;99.90;;;;;;2119160;28;20034;-71
2022/01/09 04:53:04;;;;;;;10.27;6.75;;;0.60;99.90;;;;;;2119787;27;20042;-72
2022/01/09 04:54:05;;;;;;;11.05;6.90;;;0.60;99.90;;;;;;2123575;27;20124;-71
2022/01/09 04:55:06;;;;;;;10.63;6.63;;;0.60;99.90;;;;;;2123592;27;20110;-71
2022/01/09 04:56:07;;;;;;;15.60;7.22;;;0.60;99.90;;;;;;2115322;28;20479;-71
2022/01/09 04:57:07;;;;;;;14.63;7.43;;;0.60;99.90;;;;;;2115582;28;20055;-71
2022/01/09 04:58:09;;;;;;;11.38;6.82;;;0.60;99.90;;;;;;2115259;28;20027;-71
2022/01/09 04:59:10;;;;;;;10.98;6.80;;;0.60;99.90;;;;;;2114821;28;20024;-71
2022/01/09 05:00:11;;;;;;;10.45;7.20;;;0.60;99.90;;;;;;2114492;28;20475;-71
2022/01/09 05:01:12;;;;;;;12.43;7.13;;;0.50;99.90;;;;;;2106371;28;20173;-71
2022/01/09 05:02:12;;;;;;;12.90;7.43;;;0.50;99.90;;;;;;2114530;28;20036;-73
2022/01/09 05:03:15;;;;;;;12.32;6.72;;;0.50;99.90;;;;;;2114927;28;20046;-72
2022/01/09 05:04:15;;;;;;;12.45;7.25;;;0.50;99.90;;;;;;2114898;28;20535;-73
2022/01/09 05:05:16;;;;;;;10.00;6.90;;;0.50;99.90;;;;;;2106347;28;20032;-72
2022/01/09 05:06:18;;;;;;;11.05;7.03;;;0.50;99.90;;;;;;2115119;28;20057;-71
2022/01/09 05:07:18;;;;;;;11.43;6.95;;;0.50;99.90;;;;;;2115738;28;20032;-72
2022/01/09 05:08:19;;;;;;;12.05;7.53;;;0.50;99.90;;;;;;2115657;28;20044;-70
2022/01/09 05:09:20;;;;;;;12.45;7.28;;;0.50;99.90;;;;;;2114965;28;20466;-72
2022/01/09 05:10:20;;;;;;;14.32;7.15;;;0.50;99.90;;;;;;2106564;28;20632;-71
2022/01/09 05:11:21;;;;;;;11.75;7.40;;;0.50;99.90;;;;;;2105953;28;20119;-71
2022/01/09 05:12:21;;;;;;;11.73;7.25;;;0.50;99.90;;;;;;2114666;28;20028;-71
2022/01/09 05:13:22;;;;;;;11.85;6.90;;;0.50;99.90;;;;;;2106218;28;20460;-71
2022/01/09 05:14:22;;;;;;;13.63;7.88;;;0.50;99.90;;;;;;2106360;28;20020;-72
2022/01/09 05:15:24;;;;;;;11.38;7.07;;;0.50;99.90;;;;;;2114481;28;20522;-72
2022/01/09 05:16:24;;;;;;;12.35;7.32;;;0.50;99.90;;;;;;2106331;28;20028;-72
2022/01/09 05:17:25;;;;;;;10.75;7.45;;;0.60;99.90;;;;;;2114549;28;20016;-71
2022/01/09 05:18:26;;;;;;;11.57;7.65;;;0.50;99.90;;;;;;2114364;28;20028;-72
2022/01/09 05:19:32;;;;;;;13.15;7.97;;;0.60;99.90;;;;;;2114537;28;20023;-71